WXM80 ListenWXM80 Stop

You find our weather info also at:

UK Metoffice

WeatherCloud

Weather Underground

Northeastern Weather Network

AWEKAS

Citizen Weather Observer Program (CWOP)

HAMweather, WeatherForYou, PWS Weather


Weather Underground History page Text

Daily Summary for March 11, 2017 Units:  English    Metric   Both
« Previous Day
Next Day »
Daily Weekly Monthly Yearly Custom
  High: Low: Average:
Temperature: 28.4 °F 17.6 °F 23.2 °F
Dew Point: 14.3 °F 4.5 °F 9.4 °F
Humidity: 62 % 47 % 55 %
Wind Speed: 14.8 mph 2.5 mph 8.4 mph
Wind Gust: 26.5 mph - -
Wind:- - WNW
Pressure: 30.23 in 29.96 in -
Precipitation: 0.00 in    
Historical Graphs
 
 
Tabular Data for March 11, 2017
Time Temperature Dew Point Pressure Wind Wind Speed Wind Gust Humidity Rainfall Rate (Hourly)
00:01 23.6 °F 11.0 °F 29.96 in SW 10.8 mph 19.6 mph 58 % 0.00 in
00:07 23.5 °F 10.9 °F 29.97 in NW 14.7 mph 22.0 mph 58 % 0.00 in
00:12 23.4 °F 10.4 °F 29.97 in NW 14.1 mph 17.3 mph 57 % 0.00 in
00:17 23.3 °F 10.7 °F 29.97 in WNW 12.0 mph 17.3 mph 58 % 0.00 in
00:22 23.2 °F 10.2 °F 29.98 in WNW 14.2 mph 19.6 mph 57 % 0.00 in
00:27 23.1 °F 10.5 °F 29.98 in NNW 9.1 mph 10.4 mph 58 % 0.00 in
00:32 23.0 °F 10.8 °F 29.98 in WNW 8.3 mph 16.1 mph 59 % 0.00 in
00:37 22.9 °F 11.4 °F 29.99 in NW 11.8 mph 19.6 mph 61 % 0.00 in
00:42 22.8 °F 10.6 °F 29.99 in WSW 9.7 mph 19.6 mph 59 % 0.00 in
00:47 22.7 °F 10.9 °F 30.00 in WNW 9.4 mph 22.0 mph 60 % 0.00 in
00:52 22.6 °F 10.8 °F 29.99 in WNW 7.8 mph 16.1 mph 60 % 0.00 in
00:57 22.5 °F 11.4 °F 30.00 in NNW 10.4 mph 18.0 mph 62 % 0.00 in
01:02 22.4 °F 11.3 °F 30.00 in NW 10.2 mph 26.5 mph 62 % 0.00 in
01:07 22.2 °F 11.1 °F 30.00 in NW 7.5 mph 18.4 mph 62 % 0.00 in
01:12 22.0 °F 10.6 °F 30.00 in NNW 12.5 mph 23.0 mph 61 % 0.00 in
01:17 21.8 °F 10.0 °F 29.99 in NNW 10.4 mph 21.9 mph 60 % 0.00 in
01:22 21.7 °F 9.6 °F 30.00 in WNW 12.2 mph 23.0 mph 59 % 0.00 in
01:27 21.6 °F 9.5 °F 30.00 in NW 7.5 mph 17.3 mph 59 % 0.00 in
01:32 21.4 °F 9.3 °F 30.00 in North 10.5 mph 17.3 mph 59 % 0.00 in
01:37 21.3 °F 9.9 °F 30.00 in NW 14.3 mph 20.7 mph 61 % 0.00 in
01:42 21.3 °F 10.3 °F 30.00 in NW 7.8 mph 11.5 mph 62 % 0.00 in
01:47 21.2 °F 9.1 °F 30.01 in NNW 8.7 mph 19.6 mph 59 % 0.00 in
01:52 21.1 °F 8.6 °F 30.01 in North 8.4 mph 18.4 mph 58 % 0.00 in
01:57 20.9 °F 8.4 °F 30.01 in NW 12.1 mph 24.0 mph 58 % 0.00 in
02:02 20.8 °F 7.9 °F 30.01 in NNW 12.2 mph 23.0 mph 57 % 0.00 in
02:07 20.7 °F 8.6 °F 30.01 in NNW 8.4 mph 11.5 mph 59 % 0.00 in
02:12 20.7 °F 9.7 °F 30.01 in WNW 8.3 mph 17.3 mph 62 % 0.00 in
02:17 20.6 °F 9.6 °F 30.02 in WNW 11.5 mph 19.6 mph 62 % 0.00 in
02:22 20.5 °F 8.8 °F 30.02 in WNW 9.0 mph 16.1 mph 60 % 0.00 in
02:27 20.4 °F 8.3 °F 30.02 in NW 4.6 mph 11.5 mph 59 % 0.00 in
02:32 20.3 °F 7.9 °F 30.01 in West 9.4 mph 18.4 mph 58 % 0.00 in
02:37 20.2 °F 8.1 °F 30.01 in WNW 8.5 mph 13.8 mph 59 % 0.00 in
02:42 20.1 °F 8.1 °F 30.01 in North 14.6 mph 20.7 mph 59 % 0.00 in
02:47 20.0 °F 8.3 °F 30.02 in WNW 9.7 mph 21.9 mph 60 % 0.00 in
02:52 19.9 °F 7.9 °F 30.01 in West 8.1 mph 16.1 mph 59 % 0.00 in
02:57 19.7 °F 7.7 °F 30.02 in WNW 6.2 mph 15.0 mph 59 % 0.00 in
03:02 19.6 °F 7.6 °F 30.02 in NW 8.1 mph 16.1 mph 59 % 0.00 in
03:07 19.5 °F 7.9 °F 30.02 in NW 6.2 mph 19.6 mph 60 % 0.00 in
03:12 19.4 °F 7.8 °F 30.02 in WNW 10.5 mph 16.1 mph 60 % 0.00 in
03:17 19.3 °F 7.7 °F 30.02 in SW 10.5 mph 19.6 mph 60 % 0.00 in
03:18 19.3 °F 7.7 °F 30.03 in WNW 9.7 mph 16.1 mph 60 % 0.00 in
03:23 19.3 °F 8.4 °F 30.02 in WNW 7.7 mph 15.0 mph 62 % 0.00 in
03:28 19.3 °F 8.0 °F 30.03 in WNW 9.4 mph 17.3 mph 61 % 0.00 in
03:33 19.2 °F 8.3 °F 30.03 in NW 7.4 mph 13.0 mph 62 % 0.00 in
03:38 19.2 °F 8.3 °F 30.03 in WNW 9.1 mph 18.0 mph 62 % 0.00 in
03:43 19.1 °F 7.8 °F 30.03 in NNW 7.2 mph 11.5 mph 61 % 0.00 in
03:48 19.0 °F 7.0 °F 30.03 in NW 7.5 mph 19.6 mph 59 % 0.00 in
03:53 19.0 °F 7.0 °F 30.03 in WNW 4.9 mph 15.0 mph 59 % 0.00 in
03:58 19.0 °F 7.7 °F 30.04 in NW 9.0 mph 19.6 mph 61 % 0.00 in
04:03 18.9 °F 7.3 °F 30.04 in NW 7.7 mph 19.6 mph 60 % 0.00 in
04:08 18.9 °F 7.3 °F 30.04 in WNW 8.3 mph 19.6 mph 60 % 0.00 in
04:14 18.9 °F 7.7 °F 30.04 in NW 7.5 mph 18.4 mph 61 % 0.00 in
04:19 18.8 °F 7.6 °F 30.05 in WNW 6.3 mph 16.1 mph 61 % 0.00 in
04:24 18.8 °F 6.8 °F 30.05 in NW 11.3 mph 20.7 mph 59 % 0.00 in
04:29 18.7 °F 6.7 °F 30.05 in WNW 10.5 mph 17.3 mph 59 % 0.00 in
04:34 18.6 °F 6.3 °F 30.05 in NW 7.7 mph 14.0 mph 58 % 0.00 in
04:39 18.4 °F 6.4 °F 30.05 in WNW 4.4 mph 19.6 mph 59 % 0.00 in
04:44 18.5 °F 6.9 °F 30.06 in WNW 4.5 mph 18.4 mph 60 % 0.00 in
04:49 18.4 °F 6.8 °F 30.06 in West 12.0 mph 17.3 mph 60 % 0.00 in
04:54 18.3 °F 6.0 °F 30.06 in NW 10.4 mph 18.4 mph 58 % 0.00 in
04:59 18.2 °F 5.9 °F 30.07 in WSW 6.4 mph 16.1 mph 58 % 0.00 in
05:04 18.1 °F 6.2 °F 30.07 in WNW 8.3 mph 18.4 mph 59 % 0.00 in
05:09 18.1 °F 5.8 °F 30.07 in NW 7.0 mph 13.8 mph 58 % 0.00 in
05:14 18.1 °F 5.8 °F 30.07 in WNW 7.5 mph 19.6 mph 58 % 0.00 in
05:19 18.1 °F 6.2 °F 30.08 in WNW 6.7 mph 14.0 mph 59 % 0.00 in
05:24 18.0 °F 5.7 °F 30.08 in NNW 9.3 mph 16.1 mph 58 % 0.00 in
05:29 17.9 °F 5.2 °F 30.08 in NW 9.2 mph 19.6 mph 57 % 0.00 in
05:34 17.8 °F 4.7 °F 30.09 in NW 7.9 mph 15.0 mph 56 % 0.00 in
05:39 17.8 °F 5.1 °F 30.09 in WNW 6.9 mph 16.1 mph 57 % 0.00 in
05:44 17.7 °F 5.4 °F 30.09 in NW 9.0 mph 15.0 mph 58 % 0.00 in
05:49 17.7 °F 5.4 °F 30.10 in West 9.8 mph 19.6 mph 58 % 0.00 in
05:54 17.7 °F 5.0 °F 30.10 in NW 7.8 mph 19.6 mph 57 % 0.00 in
05:59 17.7 °F 5.4 °F 30.10 in WSW 7.8 mph 17.3 mph 58 % 0.00 in
06:04 17.7 °F 5.0 °F 30.11 in West 4.3 mph 20.7 mph 57 % 0.00 in
06:09 17.7 °F 5.0 °F 30.11 in WNW 9.0 mph 18.4 mph 57 % 0.00 in
06:14 17.6 °F 4.5 °F 30.11 in West 8.0 mph 21.9 mph 56 % 0.00 in
06:19 17.6 °F 4.9 °F 30.11 in WNW 6.0 mph 18.4 mph 57 % 0.00 in
06:24 17.6 °F 4.5 °F 30.11 in NW 6.4 mph 16.1 mph 56 % 0.00 in
06:29 17.6 °F 4.9 °F 30.11 in West 5.0 mph 11.5 mph 57 % 0.00 in
06:34 17.7 °F 5.0 °F 30.11 in WNW 7.4 mph 13.8 mph 57 % 0.00 in
06:39 17.8 °F 5.9 °F 30.11 in NW 6.6 mph 18.4 mph 59 % 0.00 in
06:44 18.0 °F 5.7 °F 30.11 in NNW 6.5 mph 12.0 mph 58 % 0.00 in
06:49 18.2 °F 5.9 °F 30.12 in NW 10.9 mph 19.6 mph 58 % 0.00 in
06:54 18.4 °F 5.7 °F 30.12 in NW 14.8 mph 26.5 mph 57 % 0.00 in
06:59 18.4 °F 5.7 °F 30.13 in NW 12.1 mph 18.4 mph 57 % 0.00 in
07:04 18.6 °F 5.9 °F 30.13 in NW 10.1 mph 19.6 mph 57 % 0.00 in
07:09 18.8 °F 6.1 °F 30.13 in West 9.4 mph 17.3 mph 57 % 0.00 in
07:15 18.8 °F 5.3 °F 30.13 in WSW 9.0 mph 11.5 mph 55 % 0.00 in
07:20 19.0 °F 5.9 °F 30.13 in WNW 13.3 mph 24.0 mph 56 % 0.00 in
07:25 19.0 °F 5.1 °F 30.14 in WNW 7.6 mph 16.1 mph 54 % 0.00 in
07:30 19.2 °F 6.4 °F 30.13 in West 7.3 mph 20.7 mph 57 % 0.00 in
07:35 19.4 °F 5.8 °F 30.13 in WNW 8.6 mph 17.3 mph 55 % 0.00 in
07:40 19.4 °F 5.8 °F 30.14 in WNW 8.5 mph 15.0 mph 55 % 0.00 in
07:45 19.5 °F 5.9 °F 30.14 in WNW 9.6 mph 18.4 mph 55 % 0.00 in
07:50 19.7 °F 5.7 °F 30.14 in WNW 6.2 mph 15.0 mph 54 % 0.00 in
07:55 19.9 °F 6.7 °F 30.14 in WNW 10.9 mph 18.4 mph 56 % 0.00 in
08:00 19.9 °F 6.3 °F 30.14 in West 10.1 mph 13.8 mph 55 % 0.00 in
08:05 19.9 °F 6.3 °F 30.14 in WNW 7.4 mph 15.0 mph 55 % 0.00 in
08:10 20.0 °F 6.4 °F 30.14 in WNW 10.0 mph 21.9 mph 55 % 0.00 in
08:16 20.2 °F 7.0 °F 30.14 in WNW 8.8 mph 16.1 mph 56 % 0.00 in
08:21 20.4 °F 8.0 °F 30.14 in WNW 5.6 mph 20.0 mph 58 % 0.00 in
08:26 20.5 °F 7.7 °F 30.14 in WNW 7.2 mph 13.8 mph 57 % 0.00 in
08:31 20.7 °F 7.9 °F 30.14 in West 7.1 mph 13.8 mph 57 % 0.00 in
08:36 20.9 °F 7.6 °F 30.14 in West 7.3 mph 11.5 mph 56 % 0.00 in
08:41 21.1 °F 8.2 °F 30.14 in West 7.8 mph 17.3 mph 57 % 0.00 in
08:46 21.2 °F 8.3 °F 30.15 in NW 5.1 mph 19.6 mph 57 % 0.00 in
08:51 21.3 °F 8.0 °F 30.14 in WNW 6.4 mph 11.5 mph 56 % 0.00 in
08:56 21.4 °F 7.7 °F 30.14 in West 5.6 mph 12.7 mph 55 % 0.00 in
09:01 21.6 °F 8.3 °F 30.15 in NW 6.7 mph 12.7 mph 56 % 0.00 in
09:06 21.7 °F 8.4 °F 30.14 in WNW 8.4 mph 15.0 mph 56 % 0.00 in
09:11 21.7 °F 7.6 °F 30.14 in WSW 8.2 mph 13.0 mph 54 % 0.00 in
09:16 21.7 °F 8.8 °F 30.14 in WNW 7.7 mph 11.5 mph 57 % 0.00 in
09:22 21.7 °F 8.4 °F 30.14 in WNW 9.4 mph 15.0 mph 56 % 0.00 in
09:27 21.8 °F 8.9 °F 30.15 in SW 7.5 mph 12.0 mph 57 % 0.00 in
09:32 21.8 °F 8.1 °F 30.14 in NW 8.3 mph 16.1 mph 55 % 0.00 in
09:37 22.2 °F 7.6 °F 30.14 in WNW 11.2 mph 21.9 mph 53 % 0.00 in
09:42 22.5 °F 7.5 °F 30.14 in NW 10.1 mph 18.4 mph 52 % 0.00 in
09:47 22.5 °F 8.3 °F 30.14 in SSW 7.0 mph 18.0 mph 54 % 0.00 in
09:52 22.7 °F 8.9 °F 30.14 in WNW 5.1 mph 10.4 mph 55 % 0.00 in
09:57 23.0 °F 8.8 °F 30.14 in NW 7.7 mph 17.3 mph 54 % 0.00 in
10:02 23.0 °F 9.2 °F 30.13 in NW 6.4 mph 15.0 mph 55 % 0.00 in
10:07 23.1 °F 9.3 °F 30.14 in WNW 5.0 mph 15.0 mph 55 % 0.00 in
10:12 23.3 °F 9.1 °F 30.14 in WNW 4.8 mph 11.5 mph 54 % 0.00 in
10:17 23.4 °F 9.6 °F 30.14 in WNW 8.2 mph 17.0 mph 55 % 0.00 in
10:23 23.9 °F 9.2 °F 30.14 in WNW 6.8 mph 19.6 mph 53 % 0.00 in
10:27 24.0 °F 9.7 °F 30.14 in West 6.3 mph 15.0 mph 54 % 0.00 in
10:33 24.3 °F 10.0 °F 30.14 in North 6.8 mph 12.7 mph 54 % 0.00 in
10:37 24.2 °F 10.7 °F 30.14 in WNW 8.1 mph 13.0 mph 56 % 0.00 in
10:43 24.2 °F 10.3 °F 30.14 in NW 9.8 mph 16.0 mph 55 % 0.00 in
10:48 24.1 °F 10.2 °F 30.14 in West 7.5 mph 15.0 mph 55 % 0.00 in
10:53 24.7 °F 10.0 °F 30.14 in West 7.0 mph 17.0 mph 53 % 0.00 in
10:58 24.9 °F 10.2 °F 30.13 in West 11.5 mph 18.4 mph 53 % 0.00 in
11:03 25.2 °F 9.6 °F 30.13 in WNW 10.1 mph 19.6 mph 51 % 0.00 in
11:08 25.5 °F 9.9 °F 30.13 in WNW 9.2 mph 16.1 mph 51 % 0.00 in
11:13 25.7 °F 10.0 °F 30.12 in West 7.4 mph 11.5 mph 51 % 0.00 in
11:18 25.8 °F 9.7 °F 30.12 in WNW 11.6 mph 16.1 mph 50 % 0.00 in
11:23 25.8 °F 9.2 °F 30.12 in West 7.4 mph 12.7 mph 49 % 0.00 in
11:28 26.1 °F 10.9 °F 30.12 in NW 6.6 mph 12.7 mph 52 % 0.00 in
11:33 26.3 °F 10.2 °F 30.12 in WNW 8.3 mph 15.0 mph 50 % 0.00 in
11:38 25.9 °F 9.8 °F 30.12 in NNW 5.9 mph 12.7 mph 50 % 0.00 in
11:43 25.3 °F 9.2 °F 30.11 in NW 9.6 mph 18.4 mph 50 % 0.00 in
11:48 25.0 °F 10.3 °F 30.12 in WNW 5.5 mph 10.4 mph 53 % 0.00 in
11:53 25.2 °F 9.1 °F 30.12 in NW 6.6 mph 11.5 mph 50 % 0.00 in
11:58 25.4 °F 9.8 °F 30.12 in NW 6.9 mph 17.3 mph 51 % 0.00 in
12:03 25.2 °F 9.6 °F 30.12 in SW 6.7 mph 11.5 mph 51 % 0.00 in
12:08 25.1 °F 9.9 °F 30.11 in WSW 6.0 mph 13.0 mph 52 % 0.00 in
12:14 25.1 °F 9.9 °F 30.11 in SW 6.9 mph 12.7 mph 52 % 0.00 in
12:19 25.1 °F 10.3 °F 30.11 in West 7.1 mph 15.0 mph 53 % 0.00 in
12:24 25.3 °F 11.4 °F 30.11 in NNW 7.7 mph 11.5 mph 55 % 0.00 in
12:29 26.1 °F 11.7 °F 30.11 in NW 9.9 mph 13.8 mph 54 % 0.00 in
12:34 26.6 °F 11.7 °F 30.10 in WNW 7.7 mph 12.7 mph 53 % 0.00 in
12:39 27.0 °F 11.7 °F 30.10 in WSW 6.8 mph 19.6 mph 52 % 0.00 in
12:44 27.3 °F 11.5 °F 30.10 in WNW 7.6 mph 16.1 mph 51 % 0.00 in
12:49 27.4 °F 12.1 °F 30.10 in WNW 8.2 mph 15.0 mph 52 % 0.00 in
12:54 27.7 °F 11.9 °F 30.09 in NW 10.1 mph 20.0 mph 51 % 0.00 in
12:59 27.5 °F 11.7 °F 30.10 in NW 9.6 mph 21.0 mph 51 % 0.00 in
13:04 27.8 °F 12.9 °F 30.09 in NW 7.9 mph 15.0 mph 53 % 0.00 in
13:05 27.8 °F 12.4 °F 30.09 in NNW 8.3 mph 15.0 mph 52 % 0.00 in
13:10 28.2 °F 13.7 °F 30.09 in WNW 7.2 mph 15.0 mph 54 % 0.00 in
13:15 28.4 °F 13.0 °F 30.09 in West 10.9 mph 19.6 mph 52 % 0.00 in
13:20 28.1 °F 11.4 °F 30.09 in NW 5.4 mph 19.6 mph 49 % 0.00 in
13:25 28.0 °F 11.7 °F 30.09 in NNW 13.0 mph 15.0 mph 50 % 0.00 in
13:30 27.7 °F 10.5 °F 30.08 in WNW 10.5 mph 20.7 mph 48 % 0.00 in
13:35 27.5 °F 11.3 °F 30.08 in West 6.9 mph 20.7 mph 50 % 0.00 in
13:40 27.3 °F 11.1 °F 30.08 in WNW 9.0 mph 16.1 mph 50 % 0.00 in
13:45 27.3 °F 10.2 °F 30.08 in West 9.2 mph 16.1 mph 48 % 0.00 in
13:50 27.9 °F 12.5 °F 30.08 in North 7.2 mph 17.3 mph 52 % 0.00 in
13:55 28.2 °F 11.5 °F 30.09 in WNW 14.0 mph 26.5 mph 49 % 0.00 in
14:00 28.1 °F 10.4 °F 30.09 in WNW 9.7 mph 19.6 mph 47 % 0.00 in
14:05 28.1 °F 10.9 °F 30.08 in NNW 9.8 mph 16.1 mph 48 % 0.00 in
14:11 28.2 °F 11.9 °F 30.08 in NW 9.6 mph 25.3 mph 50 % 0.00 in
14:15 27.9 °F 11.2 °F 30.08 in WNW 9.5 mph 16.1 mph 49 % 0.00 in
14:21 27.4 °F 11.6 °F 30.08 in NNW 7.8 mph 18.4 mph 51 % 0.00 in
14:26 27.4 °F 11.6 °F 30.08 in West 6.7 mph 12.7 mph 51 % 0.00 in
14:31 27.5 °F 11.3 °F 30.07 in WNW 6.1 mph 21.9 mph 50 % 0.00 in
14:36 27.7 °F 11.5 °F 30.07 in NW 8.4 mph 19.6 mph 50 % 0.00 in
14:41 28.0 °F 12.6 °F 30.07 in West 9.0 mph 15.0 mph 52 % 0.00 in
14:46 28.3 °F 12.0 °F 30.07 in NW 7.9 mph 19.6 mph 50 % 0.00 in
14:51 28.3 °F 12.5 °F 30.08 in WNW 9.3 mph 14.0 mph 51 % 0.00 in
14:56 28.1 °F 11.8 °F 30.08 in WNW 5.5 mph 12.0 mph 50 % 0.00 in
15:01 27.9 °F 11.2 °F 30.08 in WNW 12.6 mph 19.6 mph 49 % 0.00 in
15:06 27.7 °F 11.0 °F 30.08 in West 8.3 mph 17.3 mph 49 % 0.00 in
15:11 27.7 °F 11.5 °F 30.08 in NNW 5.8 mph 12.7 mph 50 % 0.00 in
15:16 27.8 °F 11.1 °F 30.08 in WNW 11.2 mph 13.8 mph 49 % 0.00 in
15:21 27.8 °F 11.5 °F 30.08 in WNW 5.8 mph 9.2 mph 50 % 0.00 in
15:26 27.9 °F 12.1 °F 30.08 in NW 9.9 mph 15.0 mph 51 % 0.00 in
15:31 27.8 °F 12.4 °F 30.08 in West 6.0 mph 12.7 mph 52 % 0.00 in
15:37 27.9 °F 12.5 °F 30.08 in NNW 7.1 mph 12.0 mph 52 % 0.00 in
15:42 27.8 °F 12.4 °F 30.08 in West 5.2 mph 13.8 mph 52 % 0.00 in
15:47 27.8 °F 12.4 °F 30.08 in WNW 7.3 mph 9.2 mph 52 % 0.00 in
15:52 27.7 °F 12.3 °F 30.08 in West 5.7 mph 13.8 mph 52 % 0.00 in
15:57 27.7 °F 13.2 °F 30.08 in WNW 9.8 mph 16.1 mph 54 % 0.00 in
16:02 27.4 °F 12.9 °F 30.08 in WNW 7.8 mph 16.1 mph 54 % 0.00 in
16:07 27.2 °F 12.7 °F 30.08 in WNW 6.9 mph 15.0 mph 54 % 0.00 in
16:12 27.1 °F 12.6 °F 30.09 in West 8.6 mph 23.0 mph 54 % 0.00 in
16:17 27.0 °F 12.5 °F 30.08 in NW 9.2 mph 15.0 mph 54 % 0.00 in
16:22 26.9 °F 12.5 °F 30.09 in WNW 10.1 mph 18.4 mph 54 % 0.00 in
16:27 26.9 °F 13.3 °F 30.09 in WNW 9.2 mph 20.7 mph 56 % 0.00 in
16:32 26.8 °F 12.8 °F 30.09 in WNW 7.3 mph 11.5 mph 55 % 0.00 in
16:37 26.9 °F 12.5 °F 30.09 in NW 13.5 mph 19.6 mph 54 % 0.00 in
16:42 26.9 °F 12.9 °F 30.09 in WSW 8.6 mph 15.0 mph 55 % 0.00 in
16:47 26.7 °F 11.8 °F 30.09 in WNW 7.9 mph 20.7 mph 53 % 0.00 in
16:52 26.6 °F 12.2 °F 30.09 in West 9.3 mph 11.5 mph 54 % 0.00 in
16:57 26.6 °F 12.6 °F 30.09 in WNW 5.6 mph 17.3 mph 55 % 0.00 in
17:03 26.7 °F 13.1 °F 30.09 in NW 7.1 mph 16.1 mph 56 % 0.00 in
17:08 26.7 °F 14.3 °F 30.10 in West 8.9 mph 13.0 mph 59 % 0.00 in
17:13 26.7 °F 13.9 °F 30.10 in WNW 7.1 mph 12.0 mph 58 % 0.00 in
17:18 26.6 °F 12.6 °F 30.10 in WNW 6.2 mph 19.6 mph 55 % 0.00 in
17:23 26.6 °F 12.2 °F 30.10 in WNW 13.0 mph 25.0 mph 54 % 0.00 in
17:28 26.6 °F 11.7 °F 30.10 in WNW 13.0 mph 18.0 mph 53 % 0.00 in
17:33 26.6 °F 10.0 °F 30.10 in WNW 12.0 mph 21.0 mph 49 % 0.00 in
17:38 26.6 °F 11.3 °F 30.11 in WNW 6.0 mph 20.0 mph 52 % 0.00 in
17:43 26.6 °F 11.3 °F 30.11 in WNW 8.0 mph 18.0 mph 52 % 0.00 in
17:48 26.5 °F 10.8 °F 30.11 in West 13.2 mph 18.0 mph 51 % 0.00 in
17:53 26.4 °F 9.8 °F 30.11 in WNW 10.0 mph 22.0 mph 49 % 0.00 in
17:58 26.2 °F 10.1 °F 30.11 in WSW 5.9 mph 13.8 mph 50 % 0.00 in
18:03 26.1 °F 11.3 °F 30.12 in WNW 7.6 mph 13.0 mph 53 % 0.00 in
18:08 26.1 °F 12.1 °F 30.12 in WNW 8.6 mph 13.0 mph 55 % 0.00 in
18:13 26.0 °F 12.0 °F 30.12 in NW 6.6 mph 11.5 mph 55 % 0.00 in
18:18 26.0 °F 12.4 °F 30.12 in NNW 9.0 mph 15.0 mph 56 % 0.00 in
18:23 25.9 °F 11.1 °F 30.12 in NNE 5.9 mph 11.5 mph 53 % 0.00 in
18:28 25.8 °F 11.0 °F 30.13 in NNW 8.2 mph 19.6 mph 53 % 0.00 in
18:33 25.7 °F 11.3 °F 30.13 in NW 7.2 mph 15.0 mph 54 % 0.00 in
18:38 25.7 °F 11.3 °F 30.13 in NW 4.6 mph 13.8 mph 54 % 0.00 in
18:43 25.6 °F 11.7 °F 30.14 in NW 6.2 mph 11.5 mph 55 % 0.00 in
18:48 25.6 °F 12.1 °F 30.14 in WNW 11.3 mph 15.0 mph 56 % 0.00 in
18:54 25.5 °F 12.0 °F 30.15 in WNW 9.4 mph 19.6 mph 56 % 0.00 in
18:59 25.3 °F 11.4 °F 30.14 in NNW 12.2 mph 19.6 mph 55 % 0.00 in
19:04 25.3 °F 11.4 °F 30.14 in NNW 8.0 mph 12.7 mph 55 % 0.00 in
19:09 25.2 °F 11.3 °F 30.15 in NW 8.0 mph 16.1 mph 55 % 0.00 in
19:14 25.1 °F 11.2 °F 30.15 in WNW 8.5 mph 13.8 mph 55 % 0.00 in
19:19 25.0 °F 11.1 °F 30.15 in NW 9.2 mph 15.0 mph 55 % 0.00 in
19:24 24.9 °F 11.0 °F 30.15 in WNW 8.8 mph 19.6 mph 55 % 0.00 in
19:29 24.8 °F 10.9 °F 30.15 in WNW 7.1 mph 16.1 mph 55 % 0.00 in
19:34 24.8 °F 11.3 °F 30.15 in WNW 5.0 mph 10.4 mph 56 % 0.00 in
19:39 24.6 °F 10.7 °F 30.16 in WNW 6.5 mph 15.0 mph 55 % 0.00 in
19:44 24.6 °F 10.7 °F 30.15 in NW 8.4 mph 13.8 mph 55 % 0.00 in
19:49 24.5 °F 11.0 °F 30.16 in NNW 10.2 mph 19.6 mph 56 % 0.00 in
19:54 24.4 °F 10.9 °F 30.16 in WNW 11.5 mph 18.4 mph 56 % 0.00 in
19:59 24.3 °F 10.8 °F 30.16 in WNW 6.7 mph 13.8 mph 56 % 0.00 in
20:04 24.3 °F 10.8 °F 30.16 in NW 9.4 mph 17.3 mph 56 % 0.00 in
20:09 24.2 °F 10.3 °F 30.16 in NW 10.8 mph 19.6 mph 55 % 0.00 in
20:14 24.1 °F 10.2 °F 30.17 in WNW 9.2 mph 15.0 mph 55 % 0.00 in
20:19 24.0 °F 10.2 °F 30.17 in NNW 9.1 mph 15.0 mph 55 % 0.00 in
20:24 24.0 °F 10.6 °F 30.17 in NW 8.5 mph 16.0 mph 56 % 0.00 in
20:29 24.0 °F 10.6 °F 30.18 in WNW 11.4 mph 17.0 mph 56 % 0.00 in
20:34 24.0 °F 10.6 °F 30.18 in WNW 6.8 mph 12.7 mph 56 % 0.00 in
20:39 24.0 °F 10.6 °F 30.18 in WNW 12.0 mph 19.0 mph 56 % 0.00 in
20:44 23.9 °F 10.5 °F 30.18 in NW 6.9 mph 16.0 mph 56 % 0.00 in
20:49 23.9 °F 10.1 °F 30.17 in NW 6.9 mph 15.0 mph 55 % 0.00 in
20:54 23.9 °F 10.1 °F 30.17 in WNW 6.9 mph 15.0 mph 55 % 0.00 in
20:55 23.9 °F 10.1 °F 30.18 in West 9.2 mph 19.6 mph 55 % 0.00 in
21:00 23.9 °F 10.5 °F 30.18 in NW 9.2 mph 16.1 mph 56 % 0.00 in
21:05 23.8 °F 10.4 °F 30.18 in NW 8.9 mph 16.1 mph 56 % 0.00 in
21:10 23.9 °F 10.9 °F 30.18 in WNW 7.1 mph 12.7 mph 57 % 0.00 in
21:15 23.9 °F 10.5 °F 30.18 in WNW 8.9 mph 23.0 mph 56 % 0.00 in
21:20 23.8 °F 10.0 °F 30.19 in NW 9.4 mph 17.3 mph 55 % 0.00 in
21:25 23.7 °F 9.9 °F 30.19 in West 7.8 mph 13.8 mph 55 % 0.00 in
21:30 23.6 °F 8.5 °F 30.19 in WNW 7.0 mph 13.8 mph 52 % 0.00 in
21:35 23.4 °F 8.8 °F 30.19 in WNW 8.0 mph 15.0 mph 53 % 0.00 in
21:41 23.4 °F 8.8 °F 30.19 in NNW 6.9 mph 13.8 mph 53 % 0.00 in
21:46 23.4 °F 8.8 °F 30.20 in NNW 10.1 mph 20.7 mph 53 % 0.00 in
21:51 23.3 °F 9.1 °F 30.19 in NW 8.2 mph 15.0 mph 54 % 0.00 in
21:56 23.3 °F 9.1 °F 30.20 in WNW 8.7 mph 17.3 mph 54 % 0.00 in
22:01 23.3 °F 9.5 °F 30.20 in WNW 3.1 mph 8.1 mph 55 % 0.00 in
22:06 23.2 °F 9.0 °F 30.20 in WNW 6.9 mph 15.0 mph 54 % 0.00 in
22:11 23.1 °F 8.5 °F 30.20 in WSW 6.4 mph 12.7 mph 53 % 0.00 in
22:16 23.0 °F 8.4 °F 30.20 in WNW 7.3 mph 12.7 mph 53 % 0.00 in
22:21 23.0 °F 9.2 °F 30.21 in NW 5.9 mph 13.8 mph 55 % 0.00 in
22:26 23.0 °F 8.8 °F 30.20 in NW 8.8 mph 18.4 mph 54 % 0.00 in
22:31 22.9 °F 8.3 °F 30.21 in NW 12.6 mph 21.9 mph 53 % 0.00 in
22:36 22.9 °F 7.9 °F 30.20 in NW 9.5 mph 19.6 mph 52 % 0.00 in
22:41 22.8 °F 8.6 °F 30.20 in West 7.8 mph 14.0 mph 54 % 0.00 in
22:46 22.8 °F 8.6 °F 30.21 in NW 10.5 mph 18.4 mph 54 % 0.00 in
22:51 22.8 °F 8.6 °F 30.20 in NW 9.5 mph 19.6 mph 54 % 0.00 in
22:56 22.7 °F 8.5 °F 30.20 in NW 8.4 mph 16.1 mph 54 % 0.00 in
23:01 22.7 °F 8.5 °F 30.20 in West 7.5 mph 12.0 mph 54 % 0.00 in
23:06 22.6 °F 8.8 °F 30.21 in WNW 6.6 mph 11.0 mph 55 % 0.00 in
23:11 22.6 °F 9.2 °F 30.21 in WNW 5.9 mph 11.5 mph 56 % 0.00 in
23:17 22.5 °F 8.7 °F 30.22 in NW 9.9 mph 14.0 mph 55 % 0.00 in
23:21 22.5 °F 8.3 °F 30.21 in West 5.0 mph 11.5 mph 54 % 0.00 in
23:26 22.4 °F 8.2 °F 30.21 in WNW 9.3 mph 18.4 mph 54 % 0.00 in
23:31 22.4 °F 8.7 °F 30.21 in NW 2.5 mph 8.1 mph 55 % 0.00 in
23:37 22.3 °F 8.2 °F 30.22 in WSW 10.8 mph 19.6 mph 54 % 0.00 in
23:42 22.3 °F 9.0 °F 30.22 in NW 7.8 mph 15.0 mph 56 % 0.00 in
23:47 22.3 °F 8.6 °F 30.23 in WNW 5.0 mph 13.8 mph 55 % 0.00 in
23:52 22.2 °F 8.5 °F 30.23 in WNW 7.0 mph 11.5 mph 55 % 0.00 in
23:57 22.2 °F 9.3 °F 30.23 in WNW 7.2 mph 10.4 mph 57 % 0.00 in
Crab Meadow Weather
Compliments of Weather Underground - 3 mb

Script developed by  Jim McMurry - jmcmurry@mwt.net Adapted for the template by  Wim van der Kuil - Leuven-Template.eu

Weather Terms: Winter Weather Advisory - Hazardous winter weather conditions are occurring, imminent or likely. Conditions will cause a significant inconvenience and if caution is not exercised, will result in a potential threat to life and/or property. The generic term, winter weather advisory, is used for a combination of two or more of the following events; snow, freezing rain or drizzle, sleet, blowing snow.